Time;durP1;ratioP1;P1;durP2;ratioP2;P2;SDS_P1;SDS_P2;PMS_P1;PMS_P2;Temp;Humidity;BMP_temperature;BMP_pressure;BME280_temperature;BME280_humidity;BME280_pressure;Samples;Min_cycle;Max_cycle;Signal;HPM_P1;HPM_P2
2024/01/30 00:00:19;;;;;;;1.00;1.00;;;1.90;99.90;;;;;;5130623;28;20681;-70
2024/01/30 00:02:45;;;;;;;0.60;0.60;;;1.90;99.90;;;;;;5131888;27;20646;-70
2024/01/30 00:05:11;;;;;;;0.70;0.70;;;1.90;99.90;;;;;;5130543;28;20230;-71
2024/01/30 00:07:37;;;;;;;0.77;0.77;;;1.90;99.90;;;;;;5131361;28;20179;-70
2024/01/30 00:10:03;;;;;;;2.88;2.25;;;1.80;99.90;;;;;;5131494;28;20179;-71
2024/01/30 00:12:31;;;;;;;0.50;0.50;;;1.80;99.90;;;;;;5131281;28;20291;-70
2024/01/30 00:15:34;;;;;;;0.70;0.70;;;1.80;99.90;;;;;;5130666;27;20286;-70
2024/01/30 00:18:19;;;;;;;0.65;0.65;;;1.80;99.90;;;;;;5130565;28;20272;-70
2024/01/30 00:20:50;;;;;;;0.82;0.82;;;1.80;99.90;;;;;;5130173;28;20195;-71
2024/01/30 00:23:16;;;;;;;0.95;0.85;;;1.80;99.90;;;;;;5130313;28;20566;-70
2024/01/30 00:25:41;;;;;;;0.60;0.60;;;1.80;99.90;;;;;;5130197;27;20187;-70
2024/01/30 00:28:12;;;;;;;0.80;0.80;;;1.80;99.90;;;;;;5128861;28;20203;-70
2024/01/30 00:30:37;;;;;;;0.70;0.70;;;1.80;99.90;;;;;;5130077;28;20311;-70
2024/01/30 00:33:11;;;;;;;0.70;0.70;;;1.80;99.90;;;;;;5129759;28;20207;-70
2024/01/30 00:35:58;;;;;;;2.50;1.67;;;1.80;99.90;;;;;;5129820;27;20590;-70
2024/01/30 00:38:46;;;;;;;0.60;0.60;;;1.80;99.90;;;;;;5129805;28;20187;-70
2024/01/30 00:41:11;;;;;;;0.63;0.63;;;1.70;99.90;;;;;;5129915;28;20218;-69
2024/01/30 00:43:37;;;;;;;0.60;0.60;;;1.70;99.90;;;;;;5129872;28;20218;-69
2024/01/30 00:46:03;;;;;;;0.70;0.70;;;1.70;99.90;;;;;;5129829;28;20195;-70
2024/01/30 00:48:29;;;;;;;0.90;0.90;;;1.70;99.90;;;;;;5129832;28;20201;-71
2024/01/30 00:50:54;;;;;;;0.70;0.70;;;1.70;99.90;;;;;;5129777;28;20659;-72
2024/01/30 00:53:20;;;;;;;0.70;0.70;;;1.60;99.90;;;;;;5127738;28;20257;-71
2024/01/30 00:55:46;;;;;;;0.85;0.85;;;1.60;99.90;;;;;;5129816;28;20594;-72
2024/01/30 00:58:11;;;;;;;0.52;0.52;;;1.60;99.90;;;;;;5129631;28;20187;-71
2024/01/30 01:00:37;;;;;;;0.63;0.63;;;1.50;99.90;;;;;;5129227;28;20191;-71
2024/01/30 01:03:03;;;;;;;0.60;0.60;;;1.50;99.90;;;;;;5129463;28;20184;-72
2024/01/30 01:05:29;;;;;;;0.50;0.50;;;1.50;99.90;;;;;;5121989;28;20606;-71
2024/01/30 01:07:55;;;;;;;0.70;0.70;;;1.50;99.90;;;;;;5114442;28;20538;-72
2024/01/30 01:10:20;;;;;;;0.50;0.50;;;1.50;99.90;;;;;;5115478;28;20194;-72
2024/01/30 01:12:46;;;;;;;0.60;0.60;;;1.40;99.90;;;;;;5115691;28;20203;-72
2024/01/30 01:15:12;;;;;;;0.60;0.60;;;1.40;99.90;;;;;;5115341;28;20598;-72
2024/01/30 01:17:38;;;;;;;0.70;0.70;;;1.30;99.90;;;;;;5115470;28;20192;-73
2024/01/30 01:20:06;;;;;;;0.80;0.80;;;1.30;99.90;;;;;;5115187;28;20187;-72
2024/01/30 01:22:32;;;;;;;0.70;0.70;;;1.40;99.90;;;;;;5115236;28;20198;-72
2024/01/30 01:24:58;;;;;;;0.70;0.70;;;1.40;99.90;;;;;;5115520;28;20223;-72
2024/01/30 01:27:24;;;;;;;0.80;0.80;;;1.40;99.90;;;;;;5111400;28;20291;-72
2024/01/30 01:29:51;;;;;;;0.52;0.52;;;1.40;99.90;;;;;;5093754;28;20663;-72
2024/01/30 01:32:16;;;;;;;0.60;0.60;;;1.40;99.90;;;;;;5101857;28;20600;-72
2024/01/30 01:34:42;;;;;;;0.55;0.55;;;1.50;99.90;;;;;;5115178;28;20282;-72
2024/01/30 01:37:07;;;;;;;1.45;1.35;;;1.50;99.90;;;;;;5115304;28;20195;-73
2024/01/30 01:39:33;;;;;;;0.60;0.60;;;1.50;99.90;;;;;;5114884;28;20266;-72
2024/01/30 01:41:59;;;;;;;0.70;0.70;;;1.50;99.90;;;;;;5113949;28;20195;-72
2024/01/30 01:44:25;;;;;;;0.60;0.60;;;1.40;99.90;;;;;;5115011;28;20192;-72
2024/01/30 01:46:52;;;;;;;0.63;0.63;;;1.40;99.90;;;;;;5113733;28;20196;-72
2024/01/30 01:49:19;;;;;;;0.63;0.63;;;1.50;99.90;;;;;;5113657;28;20633;-72
2024/01/30 01:51:46;;;;;;;0.77;0.77;;;1.40;99.90;;;;;;5114984;28;20198;-72
2024/01/30 01:54:13;;;;;;;0.65;0.65;;;1.40;99.90;;;;;;5114493;28;20239;-72
2024/01/30 01:56:39;;;;;;;0.95;0.95;;;1.50;99.90;;;;;;5113612;28;20203;-71
2024/01/30 01:59:10;;;;;;;0.98;0.98;;;1.50;99.90;;;;;;5114764;28;20235;-71
2024/01/30 02:01:37;;;;;;;0.70;0.70;;;1.40;99.90;;;;;;5114427;28;20195;-71
2024/01/30 02:04:03;;;;;;;0.75;0.75;;;1.40;99.90;;;;;;5113919;28;20194;-71
2024/01/30 02:06:29;;;;;;;0.60;0.60;;;1.40;99.90;;;;;;5113166;28;20555;-70
2024/01/30 02:08:55;;;;;;;0.70;0.70;;;1.40;99.90;;;;;;5114922;28;20195;-71
2024/01/30 02:11:22;;;;;;;0.60;0.60;;;1.40;99.90;;;;;;5113718;28;20700;-71
2024/01/30 02:13:48;;;;;;;0.60;0.60;;;1.40;99.90;;;;;;5114555;28;20199;-70
2024/01/30 02:16:14;;;;;;;0.60;0.60;;;1.40;99.90;;;;;;5114391;28;20183;-72
2024/01/30 02:18:45;;;;;;;0.70;0.70;;;1.50;99.90;;;;;;5112069;28;20201;-71
2024/01/30 02:21:11;;;;;;;0.68;0.68;;;1.50;99.90;;;;;;5114136;28;20650;-71
2024/01/30 02:23:37;;;;;;;0.60;0.60;;;1.50;99.90;;;;;;5111817;28;20230;-71
2024/01/30 02:26:03;;;;;;;0.77;0.77;;;1.50;99.90;;;;;;5093931;28;20204;-72
2024/01/30 02:28:29;;;;;;;0.60;0.60;;;1.50;99.90;;;;;;5100049;28;20305;-71
2024/01/30 02:30:54;;;;;;;1.45;1.35;;;1.50;99.90;;;;;;5114239;28;20200;-71
2024/01/30 02:33:21;;;;;;;0.60;0.60;;;1.40;99.90;;;;;;5113781;28;20245;-71
2024/01/30 02:35:47;;;;;;;1.45;1.27;;;1.40;99.90;;;;;;5114790;28;20180;-72
2024/01/30 02:38:13;;;;;;;0.70;0.70;;;1.40;99.90;;;;;;5115098;28;20685;-72
2024/01/30 02:40:39;;;;;;;0.60;0.60;;;1.40;99.90;;;;;;5115244;28;20194;-71
2024/01/30 02:43:05;;;;;;;0.70;0.70;;;1.40;99.90;;;;;;5115638;28;20590;-72
2024/01/30 02:45:30;;;;;;;0.70;0.70;;;1.40;99.90;;;;;;5115746;28;20195;-72
2024/01/30 02:47:56;;;;;;;0.70;0.70;;;1.30;99.90;;;;;;5115455;28;20769;-71
2024/01/30 02:50:22;;;;;;;0.63;0.63;;;1.30;99.90;;;;;;5115385;28;20316;-72
2024/01/30 02:52:48;;;;;;;0.70;0.70;;;1.20;99.90;;;;;;5114190;28;20196;-72
2024/01/30 02:55:13;;;;;;;0.65;0.65;;;1.20;99.90;;;;;;5115267;28;20647;-71
2024/01/30 02:57:39;;;;;;;0.70;0.70;;;1.20;99.90;;;;;;5113554;28;20189;-72
2024/01/30 03:00:06;;;;;;;0.80;0.80;;;1.20;99.90;;;;;;5113746;28;20219;-71
2024/01/30 03:02:32;;;;;;;0.70;0.70;;;1.20;99.90;;;;;;5113471;28;20686;-71
2024/01/30 03:04:59;;;;;;;0.80;0.80;;;1.20;99.90;;;;;;5113534;28;20196;-71
2024/01/30 03:07:25;;;;;;;0.68;0.68;;;1.20;99.90;;;;;;5113355;28;20201;-72
2024/01/30 03:09:51;;;;;;;0.80;0.80;;;1.20;99.90;;;;;;5113513;28;20187;-72
2024/01/30 03:12:17;;;;;;;0.50;0.50;;;1.20;99.90;;;;;;5113287;28;20219;-72
2024/01/30 03:14:42;;;;;;;0.70;0.70;;;1.20;99.90;;;;;;5113158;28;20207;-72
2024/01/30 03:17:08;;;;;;;0.60;0.60;;;1.20;99.90;;;;;;5113347;28;20223;-73
2024/01/30 03:19:34;;;;;;;0.60;0.60;;;1.20;99.90;;;;;;5113015;28;20274;-72
2024/01/30 03:21:59;;;;;;;0.60;0.60;;;1.20;99.90;;;;;;5112674;28;20194;-72
2024/01/30 03:24:25;;;;;;;0.60;0.60;;;1.20;99.90;;;;;;5111629;28;20195;-72
2024/01/30 03:26:51;;;;;;;0.65;0.65;;;1.20;99.90;;;;;;5113146;28;20200;-72
2024/01/30 03:29:16;;;;;;;0.70;0.70;;;1.20;99.90;;;;;;5112815;28;20195;-72
2024/01/30 03:31:42;;;;;;;0.65;0.65;;;1.20;99.90;;;;;;5111737;28;20311;-72
2024/01/30 03:34:08;;;;;;;0.80;0.80;;;1.20;99.90;;;;;;5112963;28;20210;-73
2024/01/30 03:36:34;;;;;;;0.65;0.65;;;1.10;99.90;;;;;;5111642;28;20210;-73
2024/01/30 03:39:00;;;;;;;0.70;0.70;;;1.10;99.90;;;;;;5113018;28;20244;-72
2024/01/30 03:41:26;;;;;;;0.70;0.70;;;1.20;99.90;;;;;;5112832;28;20262;-73
2024/01/30 03:43:52;;;;;;;0.73;0.73;;;1.20;99.90;;;;;;5112962;28;20201;-73
2024/01/30 03:46:18;;;;;;;1.35;1.25;;;1.20;99.90;;;;;;5112881;28;20196;-73
2024/01/30 03:48:44;;;;;;;0.70;0.70;;;1.10;99.90;;;;;;5112715;28;20198;-73
2024/01/30 03:51:14;;;;;;;1.05;1.05;;;1.20;99.90;;;;;;5111493;28;20199;-73
2024/01/30 03:53:43;;;;;;;0.75;0.75;;;1.20;99.90;;;;;;5112360;28;20590;-73
2024/01/30 03:56:09;;;;;;;0.80;0.80;;;1.20;99.90;;;;;;5112867;28;20188;-74
2024/01/30 03:58:35;;;;;;;0.70;0.70;;;1.20;99.90;;;;;;5112619;28;20600;-73
2024/01/30 04:01:01;;;;;;;0.70;0.70;;;1.20;99.90;;;;;;5104633;28;20196;-72
2024/01/30 04:03:27;;;;;;;0.70;0.70;;;1.20;99.90;;;;;;5111071;28;20196;-73
2024/01/30 04:05:53;;;;;;;0.82;0.82;;;1.20;99.90;;;;;;5112498;28;20195;-73
2024/01/30 04:08:19;;;;;;;0.70;0.70;;;1.20;99.90;;;;;;5112465;28;20778;-73
2024/01/30 04:10:44;;;;;;;0.70;0.70;;;1.20;99.90;;;;;;5112558;28;20191;-72
2024/01/30 04:13:10;;;;;;;0.80;0.80;;;1.20;99.90;;;;;;5112383;28;20195;-73
2024/01/30 04:15:36;;;;;;;0.60;0.60;;;1.20;99.90;;;;;;5112359;28;20229;-72
2024/01/30 04:18:02;;;;;;;0.70;0.70;;;1.20;99.90;;;;;;5112411;28;20199;-70
2024/01/30 04:20:27;;;;;;;0.73;0.73;;;1.20;99.90;;;;;;5111645;28;20199;-70
2024/01/30 04:22:53;;;;;;;0.60;0.60;;;1.20;99.90;;;;;;5112468;28;20192;-70
2024/01/30 04:25:19;;;;;;;0.75;0.75;;;1.20;99.90;;;;;;5110620;28;20191;-70
2024/01/30 04:27:44;;;;;;;0.60;0.60;;;1.20;99.90;;;;;;5110503;28;20554;-70
2024/01/30 04:30:13;;;;;;;0.70;0.70;;;1.30;99.90;;;;;;5110584;28;20235;-70
2024/01/30 04:32:39;;;;;;;0.63;0.63;;;1.30;99.90;;;;;;5111805;28;20194;-70
2024/01/30 04:35:04;;;;;;;0.70;0.70;;;1.30;99.90;;;;;;5112310;28;20286;-70
2024/01/30 04:37:30;;;;;;;0.80;0.80;;;1.30;99.90;;;;;;5111439;28;20191;-70
2024/01/30 04:39:56;;;;;;;0.60;0.60;;;1.30;99.90;;;;;;5112077;28;20215;-70
2024/01/30 04:42:22;;;;;;;0.60;0.60;;;1.30;99.90;;;;;;5115744;28;20555;-70
2024/01/30 04:44:48;;;;;;;0.70;0.70;;;1.30;99.90;;;;;;5115834;28;20270;-70
2024/01/30 04:47:13;;;;;;;0.80;0.80;;;1.30;99.90;;;;;;5115967;28;20202;-70
2024/01/30 04:49:39;;;;;;;0.80;0.80;;;1.20;99.90;;;;;;5114254;28;20199;-70
2024/01/30 04:52:06;;;;;;;0.60;0.60;;;1.20;99.90;;;;;;5115408;28;20561;-70
2024/01/30 04:54:32;;;;;;;0.60;0.60;;;1.20;99.90;;;;;;5113679;28;20231;-70
2024/01/30 04:56:58;;;;;;;0.60;0.60;;;1.20;99.90;;;;;;5115739;28;20192;-70
2024/01/30 04:59:24;;;;;;;1.10;1.08;;;1.20;99.90;;;;;;5115281;28;20184;-70
2024/01/30 05:01:50;;;;;;;0.70;0.70;;;1.20;99.90;;;;;;5115536;28;20202;-70
2024/01/30 05:04:16;;;;;;;0.70;0.70;;;1.20;99.90;;;;;;5115541;28;20191;-70
2024/01/30 05:06:41;;;;;;;0.60;0.60;;;1.20;99.90;;;;;;5115410;28;20198;-70
2024/01/30 05:09:08;;;;;;;0.70;0.70;;;1.20;99.90;;;;;;5115301;28;20191;-70
2024/01/30 05:11:38;;;;;;;0.57;0.57;;;1.20;99.90;;;;;;5115106;28;20252;-70
2024/01/30 05:14:05;;;;;;;0.70;0.70;;;1.20;99.90;;;;;;5098204;28;20210;-70
2024/01/30 05:16:31;;;;;;;0.65;0.65;;;1.20;99.90;;;;;;5095261;28;20184;-70
2024/01/30 05:18:57;;;;;;;0.52;0.52;;;1.20;99.90;;;;;;5115225;28;20206;-71
2024/01/30 05:21:23;;;;;;;0.65;0.65;;;1.20;99.90;;;;;;5114403;28;20198;-70
2024/01/30 05:23:48;;;;;;;0.90;0.90;;;1.20;99.90;;;;;;5114735;28;20274;-70
2024/01/30 05:26:14;;;;;;;0.68;0.68;;;1.30;99.90;;;;;;5114993;28;20251;-70
2024/01/30 05:28:40;;;;;;;0.70;0.70;;;1.30;99.90;;;;;;5115250;28;20286;-70
2024/01/30 05:31:05;;;;;;;0.70;0.70;;;1.30;99.90;;;;;;5113908;28;20198;-70
2024/01/30 05:33:31;;;;;;;0.70;0.70;;;1.30;99.90;;;;;;5115376;28;20222;-70
2024/01/30 05:35:56;;;;;;;0.70;0.70;;;1.30;99.90;;;;;;5115350;28;20195;-70
2024/01/30 05:38:22;;;;;;;0.55;0.55;;;1.30;99.90;;;;;;5114883;28;20195;-70
2024/01/30 05:40:48;;;;;;;0.70;0.70;;;1.30;99.90;;;;;;5113970;28;20236;-70
2024/01/30 05:43:13;;;;;;;0.68;0.68;;;1.30;99.90;;;;;;5115041;28;20271;-70
2024/01/30 05:45:39;;;;;;;0.70;0.70;;;1.20;99.90;;;;;;5113554;28;20212;-70
2024/01/30 05:48:05;;;;;;;0.60;0.60;;;1.30;99.90;;;;;;5115023;28;20188;-69
2024/01/30 05:50:31;;;;;;;0.70;0.70;;;1.30;99.90;;;;;;5114792;28;20655;-69
2024/01/30 05:52:56;;;;;;;0.60;0.60;;;1.30;99.90;;;;;;5109371;28;20667;-70
2024/01/30 05:55:22;;;;;;;1.33;1.23;;;1.30;99.90;;;;;;5113641;28;20224;-70
2024/01/30 05:57:48;;;;;;;0.82;0.80;;;1.30;99.90;;;;;;5114647;28;20191;-70
2024/01/30 06:00:14;;;;;;;0.70;0.70;;;1.30;99.90;;;;;;5113455;28;20697;-70
2024/01/30 06:02:39;;;;;;;0.60;0.60;;;1.30;99.90;;;;;;5114299;28;20229;-70
2024/01/30 06:05:05;;;;;;;0.77;0.77;;;1.20;99.90;;;;;;5113068;28;20272;-69
2024/01/30 06:07:31;;;;;;;0.60;0.60;;;1.30;99.90;;;;;;5114392;28;20196;-69
2024/01/30 06:09:57;;;;;;;0.60;0.60;;;1.20;99.90;;;;;;5112564;28;20280;-70
2024/01/30 06:12:23;;;;;;;0.80;0.80;;;1.20;99.90;;;;;;5114206;28;20601;-69
2024/01/30 06:14:48;;;;;;;1.42;1.25;;;1.20;99.90;;;;;;5113624;28;20203;-70
2024/01/30 06:17:14;;;;;;;0.73;0.73;;;1.20;99.90;;;;;;5108929;28;20199;-69
2024/01/30 06:19:40;;;;;;;0.60;0.60;;;1.20;99.90;;;;;;5094780;28;20291;-70
2024/01/30 06:22:05;;;;;;;0.80;0.80;;;1.20;99.90;;;;;;5093950;28;20237;-68
2024/01/30 06:24:31;;;;;;;0.70;0.70;;;1.20;99.90;;;;;;5093911;28;20196;-68
2024/01/30 06:26:57;;;;;;;1.85;1.50;;;1.20;99.90;;;;;;5093736;28;20191;-69
2024/01/30 06:29:24;;;;;;;0.70;0.70;;;1.20;99.90;;;;;;5093753;28;20227;-69
2024/01/30 06:31:50;;;;;;;0.70;0.70;;;1.20;99.90;;;;;;5093966;28;20195;-69
2024/01/30 06:34:16;;;;;;;0.70;0.70;;;1.20;99.90;;;;;;5093865;28;20573;-69
2024/01/30 06:36:42;;;;;;;0.80;0.80;;;1.20;99.90;;;;;;5093793;28;20203;-70
2024/01/30 06:39:07;;;;;;;1.70;1.27;;;1.20;99.90;;;;;;5092883;28;20196;-70
2024/01/30 06:41:33;;;;;;;0.70;0.70;;;1.20;99.90;;;;;;5093625;28;20552;-70
2024/01/30 06:43:59;;;;;;;0.75;0.75;;;1.20;99.90;;;;;;5093812;28;20192;-70
2024/01/30 06:46:25;;;;;;;0.70;0.70;;;1.20;99.90;;;;;;5093537;28;20232;-69
2024/01/30 06:48:50;;;;;;;0.90;0.90;;;1.20;99.90;;;;;;5093787;28;20729;-68
2024/01/30 06:51:16;;;;;;;0.60;0.60;;;1.20;99.90;;;;;;5093636;28;20238;-69
2024/01/30 06:53:42;;;;;;;0.90;0.90;;;1.20;99.90;;;;;;5093227;28;20231;-70
2024/01/30 06:56:08;;;;;;;1.65;1.55;;;1.20;99.90;;;;;;5093568;28;20188;-70
2024/01/30 06:58:33;;;;;;;1.30;1.20;;;1.20;99.90;;;;;;5093364;28;20184;-69
2024/01/30 07:00:59;;;;;;;0.90;0.90;;;1.20;99.90;;;;;;5092185;28;20194;-69
2024/01/30 07:03:25;;;;;;;1.38;1.27;;;1.20;99.90;;;;;;5091401;28;20279;-69
2024/01/30 07:05:51;;;;;;;1.17;1.08;;;1.10;99.90;;;;;;5101870;28;20202;-70
2024/01/30 07:08:17;;;;;;;0.77;0.77;;;1.20;99.90;;;;;;5113752;28;20326;-70
2024/01/30 07:10:43;;;;;;;1.13;1.05;;;1.20;99.90;;;;;;5113554;28;20219;-70
2024/01/30 07:13:10;;;;;;;1.42;1.33;;;1.10;99.90;;;;;;5113628;28;20647;-70
2024/01/30 07:15:36;;;;;;;2.13;1.92;;;1.20;99.90;;;;;;5113258;28;20211;-69
2024/01/30 07:18:02;;;;;;;1.48;1.38;;;1.20;99.90;;;;;;5113497;28;20189;-70
2024/01/30 07:20:30;;;;;;;0.70;0.70;;;1.20;99.90;;;;;;5113067;28;20241;-69
2024/01/30 07:22:56;;;;;;;0.73;0.73;;;1.20;99.90;;;;;;5113439;28;20252;-69
2024/01/30 07:25:26;;;;;;;1.13;1.02;;;1.20;99.90;;;;;;5113170;28;20768;-70
2024/01/30 07:27:52;;;;;;;0.80;0.80;;;1.20;99.90;;;;;;5112512;28;20199;-69
2024/01/30 07:30:18;;;;;;;1.80;1.55;;;1.20;99.90;;;;;;5113189;28;20203;-69
2024/01/30 07:32:44;;;;;;;0.70;0.70;;;1.30;99.90;;;;;;5113277;28;20204;-69
2024/01/30 07:35:11;;;;;;;0.75;0.75;;;1.30;99.90;;;;;;5101739;28;20211;-70
2024/01/30 07:37:37;;;;;;;0.85;0.85;;;1.30;99.90;;;;;;5098205;28;20711;-70
2024/01/30 07:40:03;;;;;;;0.73;0.73;;;1.30;99.90;;;;;;5097984;28;20214;-71
2024/01/30 07:42:28;;;;;;;0.60;0.60;;;1.30;99.90;;;;;;5098471;28;20238;-70
2024/01/30 07:44:54;;;;;;;0.77;0.77;;;1.30;99.90;;;;;;5098165;28;20199;-70
2024/01/30 07:47:20;;;;;;;1.08;1.05;;;1.30;99.90;;;;;;5110567;28;20207;-70
2024/01/30 07:49:45;;;;;;;1.73;1.50;;;1.30;99.90;;;;;;5112969;28;20191;-69
2024/01/30 07:52:11;;;;;;;0.70;0.70;;;1.30;99.90;;;;;;5110854;28;20549;-69
2024/01/30 07:54:39;;;;;;;1.25;1.15;;;1.30;99.90;;;;;;5107031;28;20219;-70
2024/01/30 07:57:05;;;;;;;1.60;1.50;;;1.30;99.90;;;;;;5111412;28;20195;-70
2024/01/30 07:59:31;;;;;;;0.88;0.88;;;1.30;99.90;;;;;;5096684;28;20248;-70
2024/01/30 08:01:56;;;;;;;3.40;1.63;;;1.40;99.90;;;;;;5100762;28;20226;-71
2024/01/30 08:04:22;;;;;;;1.70;1.60;;;1.40;99.90;;;;;;5103869;28;20199;-71
2024/01/30 08:06:48;;;;;;;0.65;0.65;;;1.40;99.90;;;;;;5107955;28;20199;-70
2024/01/30 08:09:14;;;;;;;0.82;0.82;;;1.40;99.90;;;;;;5111596;28;20196;-70
2024/01/30 08:11:40;;;;;;;6.97;1.63;;;1.40;99.90;;;;;;5112712;28;20694;-70
2024/01/30 08:14:05;;;;;;;0.60;0.60;;;1.50;99.90;;;;;;5111458;28;20221;-69
2024/01/30 08:16:31;;;;;;;0.80;0.80;;;1.50;99.90;;;;;;5115785;28;20187;-68
2024/01/30 08:18:57;;;;;;;1.35;1.30;;;1.50;99.90;;;;;;5115705;28;20263;-70
2024/01/30 08:21:23;;;;;;;1.30;1.20;;;1.50;99.90;;;;;;5116785;28;20194;-69
2024/01/30 08:23:49;;;;;;;1.17;1.08;;;1.50;99.90;;;;;;5115694;28;20195;-70
2024/01/30 08:26:14;;;;;;;0.75;0.75;;;1.60;99.90;;;;;;5116770;28;20227;-69
2024/01/30 08:28:40;;;;;;;1.10;1.10;;;1.60;99.90;;;;;;5115477;28;20195;-71
2024/01/30 08:31:05;;;;;;;0.80;0.80;;;1.70;99.90;;;;;;5115668;28;20199;-69
2024/01/30 08:33:31;;;;;;;0.60;0.60;;;1.70;99.90;;;;;;5116889;28;20253;-71
2024/01/30 08:35:57;;;;;;;1.33;1.15;;;1.70;99.90;;;;;;5115689;28;20199;-71
2024/01/30 08:38:23;;;;;;;0.90;0.90;;;1.70;99.90;;;;;;5116461;28;20225;-71
2024/01/30 08:40:49;;;;;;;0.65;0.65;;;1.70;99.90;;;;;;5116524;28;20199;-71
2024/01/30 08:43:15;;;;;;;0.98;0.98;;;1.70;99.90;;;;;;5116580;28;20206;-71
2024/01/30 08:45:41;;;;;;;1.63;1.52;;;1.80;99.90;;;;;;5115007;28;20199;-70
2024/01/30 08:48:07;;;;;;;0.60;0.60;;;1.80;99.90;;;;;;5102858;28;20208;-71
2024/01/30 08:50:34;;;;;;;0.70;0.70;;;1.90;99.90;;;;;;5095780;28;20207;-71
2024/01/30 08:53:00;;;;;;;0.70;0.70;;;1.90;99.90;;;;;;5095710;28;20198;-71
2024/01/30 08:55:25;;;;;;;0.63;0.63;;;1.90;99.90;;;;;;5094130;28;20219;-70
2024/01/30 08:57:52;;;;;;;0.55;0.55;;;1.90;99.90;;;;;;5100433;28;20230;-69
2024/01/30 09:00:18;;;;;;;0.70;0.70;;;2.00;99.90;;;;;;5106899;28;20207;-70
2024/01/30 09:02:43;;;;;;;1.45;1.35;;;2.00;99.90;;;;;;5106110;28;20256;-71
2024/01/30 09:05:09;;;;;;;0.68;0.68;;;2.00;99.90;;;;;;5100644;28;20199;-70
2024/01/30 09:07:35;;;;;;;1.52;1.42;;;2.10;99.90;;;;;;5101339;28;20318;-70
2024/01/30 09:10:00;;;;;;;0.55;0.55;;;2.10;99.90;;;;;;5094332;28;20200;-70
2024/01/30 09:12:26;;;;;;;0.63;0.63;;;2.00;99.90;;;;;;5095281;28;20188;-70
2024/01/30 09:14:52;;;;;;;0.60;0.60;;;2.00;99.90;;;;;;5095509;28;20204;-70
2024/01/30 09:17:18;;;;;;;0.77;0.77;;;2.00;99.90;;;;;;5094033;28;20287;-70
2024/01/30 09:19:46;;;;;;;0.70;0.70;;;1.90;99.90;;;;;;5095669;28;20667;-70
2024/01/30 09:22:11;;;;;;;0.88;0.88;;;1.90;99.90;;;;;;5093982;28;20559;-70
2024/01/30 09:24:37;;;;;;;0.60;0.60;;;2.00;99.90;;;;;;5095180;28;21193;-70
2024/01/30 09:27:03;;;;;;;0.60;0.60;;;2.10;99.90;;;;;;5094836;28;20267;-71
2024/01/30 09:29:28;;;;;;;0.60;0.60;;;2.10;99.90;;;;;;5093787;28;20679;-70
2024/01/30 09:31:54;;;;;;;0.60;0.60;;;2.10;99.90;;;;;;5095126;28;20210;-71
2024/01/30 09:34:20;;;;;;;0.52;0.52;;;2.20;99.90;;;;;;5094859;28;20215;-71
2024/01/30 09:36:46;;;;;;;0.85;0.85;;;2.20;99.90;;;;;;5095112;28;20216;-70
2024/01/30 09:39:11;;;;;;;0.65;0.65;;;2.20;99.90;;;;;;5095050;28;20194;-70
2024/01/30 09:41:48;;;;;;;1.77;1.10;;;2.20;99.90;;;;;;5093575;28;20555;-70
2024/01/30 09:44:16;;;;;;;0.70;0.70;;;2.30;99.90;;;;;;5106568;28;20207;-70
2024/01/30 09:46:42;;;;;;;0.60;0.60;;;2.20;99.90;;;;;;5115170;28;20308;-70
2024/01/30 09:49:09;;;;;;;0.70;0.70;;;2.20;99.90;;;;;;5113934;28;20613;-70
2024/01/30 09:51:35;;;;;;;2.38;2.00;;;2.20;99.90;;;;;;5114727;28;20199;-70
2024/01/30 09:54:02;;;;;;;5.15;3.30;;;2.20;99.90;;;;;;5114793;28;20231;-70
2024/01/30 09:56:29;;;;;;;1.17;1.08;;;2.20;99.90;;;;;;5115055;28;20192;-70
2024/01/30 09:58:54;;;;;;;0.82;0.82;;;2.20;99.90;;;;;;5115084;28;20190;-71
2024/01/30 10:01:20;;;;;;;0.75;0.75;;;2.20;99.90;;;;;;5114734;28;20690;-71
2024/01/30 10:03:46;;;;;;;0.70;0.70;;;2.20;99.90;;;;;;5114974;28;20197;-70
2024/01/30 10:06:12;;;;;;;0.60;0.60;;;2.20;99.90;;;;;;5114851;28;20192;-69
2024/01/30 10:08:37;;;;;;;0.60;0.60;;;2.20;99.90;;;;;;5114729;28;20647;-71
2024/01/30 10:11:04;;;;;;;0.80;0.80;;;2.20;99.90;;;;;;5114827;28;20191;-68
2024/01/30 10:13:29;;;;;;;0.80;0.80;;;2.10;99.90;;;;;;5114573;28;20649;-69
2024/01/30 10:15:56;;;;;;;0.80;0.80;;;2.10;99.90;;;;;;5114710;28;20241;-71
2024/01/30 10:18:25;;;;;;;1.00;0.95;;;2.10;99.90;;;;;;5114536;28;20183;-71
2024/01/30 10:20:51;;;;;;;0.52;0.52;;;2.10;99.90;;;;;;5114723;28;20248;-68
2024/01/30 10:23:19;;;;;;;0.65;0.65;;;2.10;99.90;;;;;;5113192;28;20203;-71
2024/01/30 10:25:44;;;;;;;0.52;0.52;;;2.10;99.90;;;;;;5114566;28;20223;-71
2024/01/30 10:28:11;;;;;;;0.50;0.50;;;2.10;99.90;;;;;;5114452;28;20188;-71
2024/01/30 10:30:36;;;;;;;0.60;0.60;;;2.20;99.90;;;;;;5114269;28;20195;-71
2024/01/30 10:33:05;;;;;;;0.50;0.50;;;2.20;99.90;;;;;;5113072;28;20202;-70
2024/01/30 10:35:31;;;;;;;0.70;0.70;;;2.20;99.90;;;;;;5113083;28;20219;-71
2024/01/30 10:37:58;;;;;;;0.80;0.80;;;2.20;99.90;;;;;;5113455;28;20183;-71
2024/01/30 10:40:28;;;;;;;0.60;0.60;;;2.20;99.90;;;;;;5111975;28;20671;-70
2024/01/30 10:42:55;;;;;;;0.90;0.90;;;2.20;99.90;;;;;;5114236;28;20187;-70
2024/01/30 10:45:22;;;;;;;0.70;0.70;;;2.20;99.90;;;;;;5113919;28;20191;-71
2024/01/30 10:47:56;;;;;;;0.93;0.93;;;2.20;99.90;;;;;;5114131;28;20651;-71
2024/01/30 10:50:24;;;;;;;1.40;1.30;;;2.30;99.90;;;;;;5112429;28;20200;-70
2024/01/30 10:52:50;;;;;;;0.65;0.65;;;2.30;99.90;;;;;;5101668;28;20722;-71
2024/01/30 10:55:18;;;;;;;0.70;0.70;;;2.30;99.90;;;;;;5093268;28;20322;-71
2024/01/30 10:57:44;;;;;;;0.70;0.70;;;2.40;99.90;;;;;;5093334;28;20196;-70
2024/01/30 11:00:12;;;;;;;0.88;0.88;;;2.40;99.90;;;;;;5093477;28;20188;-71
2024/01/30 11:02:43;;;;;;;0.60;0.60;;;2.40;99.90;;;;;;5092312;28;20206;-70
2024/01/30 11:05:09;;;;;;;0.70;0.70;;;2.40;99.90;;;;;;5093413;28;20677;-71
2024/01/30 11:07:35;;;;;;;0.65;0.65;;;2.40;99.90;;;;;;5091860;28;20192;-71
2024/01/30 11:10:06;;;;;;;0.55;0.55;;;2.30;99.90;;;;;;5093386;28;20630;-71
2024/01/30 11:12:33;;;;;;;0.65;0.65;;;2.40;99.90;;;;;;5091822;28;20196;-71
2024/01/30 11:15:10;;;;;;;0.60;0.60;;;2.40;99.90;;;;;;5093209;28;20298;-71
2024/01/30 11:17:48;;;;;;;0.50;0.50;;;2.40;99.90;;;;;;5091967;28;20246;-71
2024/01/30 11:20:27;;;;;;;0.60;0.60;;;2.40;99.90;;;;;;5093182;28;20724;-71
2024/01/30 11:22:54;;;;;;;0.70;0.70;;;2.40;99.90;;;;;;5093206;28;20188;-71
2024/01/30 11:25:21;;;;;;;1.50;1.23;;;2.40;99.90;;;;;;5091620;28;20216;-70
2024/01/30 11:27:50;;;;;;;1.30;1.20;;;2.40;99.90;;;;;;5093227;28;20188;-71
2024/01/30 11:30:25;;;;;;;0.98;0.93;;;2.40;99.90;;;;;;5093029;28;20211;-71
2024/01/30 11:33:05;;;;;;;0.52;0.52;;;2.30;99.90;;;;;;5092795;28;20621;-72
2024/01/30 11:35:33;;;;;;;0.70;0.70;;;2.40;99.90;;;;;;5096110;28;20322;-71
2024/01/30 11:38:00;;;;;;;0.60;0.60;;;2.40;99.90;;;;;;5113235;28;20191;-72
2024/01/30 11:40:30;;;;;;;0.60;0.60;;;2.40;99.90;;;;;;5112910;28;20558;-72
2024/01/30 11:42:58;;;;;;;1.08;0.98;;;2.40;99.90;;;;;;5113401;28;20233;-72
2024/01/30 11:45:24;;;;;;;0.77;0.77;;;2.40;99.90;;;;;;5111883;28;20196;-72
2024/01/30 11:47:49;;;;;;;0.63;0.63;;;2.40;99.90;;;;;;5113352;28;20603;-73
2024/01/30 11:50:15;;;;;;;0.70;0.70;;;2.40;99.90;;;;;;5111780;28;20200;-73
2024/01/30 11:52:42;;;;;;;0.52;0.52;;;2.30;99.90;;;;;;5101869;28;20249;-73
2024/01/30 11:55:09;;;;;;;0.75;0.75;;;2.30;99.90;;;;;;5092642;28;20706;-72
2024/01/30 11:57:37;;;;;;;0.60;0.60;;;2.20;99.90;;;;;;5091747;28;20192;-73
2024/01/30 12:00:09;;;;;;;0.77;0.77;;;2.30;99.90;;;;;;5093200;28;20195;-72
2024/01/30 12:02:41;;;;;;;0.60;0.60;;;2.20;99.90;;;;;;5093183;28;20674;-73
2024/01/30 12:05:07;;;;;;;0.80;0.80;;;2.20;99.90;;;;;;5093358;28;20587;-74
2024/01/30 12:07:33;;;;;;;0.75;0.75;;;2.20;99.90;;;;;;5092202;28;20279;-74
2024/01/30 12:09:59;;;;;;;0.50;0.50;;;2.30;99.90;;;;;;5091932;28;20667;-74
2024/01/30 12:12:29;;;;;;;0.70;0.70;;;2.30;99.90;;;;;;5092989;28;20260;-73
2024/01/30 12:14:56;;;;;;;0.70;0.70;;;2.30;99.90;;;;;;5092788;28;20303;-74
2024/01/30 12:17:32;;;;;;;0.70;0.70;;;2.40;99.90;;;;;;5092377;28;20192;-74
2024/01/30 12:20:12;;;;;;;1.10;1.00;;;2.30;99.90;;;;;;5092209;28;20188;-74
2024/01/30 12:22:43;;;;;;;0.60;0.60;;;2.30;99.90;;;;;;5097108;28;20232;-75
2024/01/30 12:25:13;;;;;;;0.70;0.70;;;2.30;99.90;;;;;;5097848;28;20208;-73
2024/01/30 12:27:42;;;;;;;0.65;0.65;;;2.30;99.90;;;;;;5097270;28;20196;-75
2024/01/30 12:30:10;;;;;;;0.73;0.73;;;2.20;99.90;;;;;;5093377;28;20200;-74
2024/01/30 12:32:46;;;;;;;0.60;0.60;;;2.20;99.90;;;;;;5092923;28;20229;-74
2024/01/30 12:35:17;;;;;;;0.52;0.52;;;2.20;99.90;;;;;;5096406;28;20211;-74
2024/01/30 12:37:47;;;;;;;0.60;0.60;;;2.10;99.90;;;;;;5104188;28;20191;-75
2024/01/30 12:40:14;;;;;;;0.60;0.60;;;2.20;99.90;;;;;;5112078;28;20538;-75
2024/01/30 12:42:48;;;;;;;0.85;0.85;;;2.20;99.90;;;;;;5112211;28;20194;-74
2024/01/30 12:45:15;;;;;;;0.65;0.65;;;2.20;99.90;;;;;;5112138;28;20198;-75
2024/01/30 12:47:41;;;;;;;0.70;0.70;;;2.20;99.90;;;;;;5112268;28;20492;-75
2024/01/30 12:50:07;;;;;;;0.80;0.80;;;2.20;99.90;;;;;;5112193;28;20192;-75
2024/01/30 12:52:35;;;;;;;0.70;0.70;;;2.20;99.90;;;;;;5101991;28;20707;-75
2024/01/30 12:55:00;;;;;;;0.80;0.80;;;2.20;99.90;;;;;;5091574;28;20228;-75